Terminal Aerodrome Forecast
Issued by NWS

Home | Current Version | Previous Version | Text Only | Print | Product List | Glossary On
Versions: 1 2 3 4 5 6 7 8 9 10 11 12 13 14 15 16 17
000
FTUS46 KSTO 250500
TAFRDD
TAF
KRDD 250535Z 2506/2606 15010KT P6SM OVC200
     FM251200 18020G30KT P6SM -SHRA OVC025
      TEMPO 2515/2519 3SM -SHRA OVC015
     FM252000 18028G40KT 5SM -SHRA OVC015 PROB30 2520/2524 3SM TSRA
      OVC015CB
     FM260300 16015G20KT P6SM VCSH BKN050=

USA.gov is the U.S. government's official web portal to all federal, state and local government web resources and services.